createdAt,value
2017-05-28T00:09:38.008Z,18.7
2017-05-28T00:19:52.453Z,18.9
2017-05-28T00:30:06.718Z,18.5
2017-05-28T00:40:20.780Z,18.4
2017-05-28T00:50:34.574Z,18.4
2017-05-28T01:00:50.034Z,18.4
2017-05-28T01:11:04.702Z,17.9
2017-05-28T01:21:19.523Z,17.7
2017-05-28T01:31:34.829Z,17.8
2017-05-28T01:41:49.199Z,17.4
2017-05-28T01:52:04.362Z,17.5
2017-05-28T02:02:19.399Z,17.4
2017-05-28T02:12:34.794Z,17.1
2017-05-28T02:22:49.668Z,16.8
2017-05-28T02:33:04.460Z,16.4
2017-05-28T02:43:18.812Z,16.4
2017-05-28T02:53:33.525Z,16.2
2017-05-28T03:03:47.692Z,16.2
2017-05-28T03:14:01.591Z,15.8
2017-05-28T03:24:15.599Z,15.6
2017-05-28T03:34:29.506Z,15.8
2017-05-28T03:44:45.060Z,16.2
2017-05-28T03:55:00.616Z,16.8
2017-05-28T04:05:15.815Z,17.8
2017-05-28T04:15:29.680Z,18.7
2017-05-28T04:25:44.021Z,19.1
2017-05-28T04:35:57.876Z,19.3
2017-05-28T04:46:12.765Z,19.3
2017-05-28T04:56:27.898Z,19.4
2017-05-28T05:06:43.438Z,19.4
2017-05-28T05:16:58.321Z,19.4
2017-05-28T05:27:13.530Z,19.6
2017-05-28T05:37:28.708Z,19.5
2017-05-28T05:47:44.048Z,19.4
2017-05-28T05:57:58.934Z,19.2
2017-05-28T06:08:13.099Z,19
2017-05-28T06:18:27.953Z,19.3
2017-05-28T06:28:42.340Z,18.9
2017-05-28T06:38:56.167Z,18.5
2017-05-28T06:49:11.185Z,18
2017-05-28T06:59:26.349Z,18.1
2017-05-28T07:09:41.369Z,18.6
2017-05-28T07:19:55.687Z,19.1
2017-05-28T07:30:11.324Z,20.3
2017-05-28T07:40:27.101Z,21.3
2017-05-28T07:50:41.259Z,22.4
2017-05-28T08:00:56.411Z,22.6
2017-05-28T08:11:11.542Z,22.8
2017-05-28T08:21:25.613Z,23.6
2017-05-28T08:31:39.704Z,24.3
2017-05-28T08:41:54.940Z,23.6
2017-05-28T08:52:10.781Z,24
2017-05-28T09:02:24.963Z,24.4
2017-05-28T09:12:40.688Z,24.6
2017-05-28T09:22:55.247Z,25.2
2017-05-28T09:33:10.255Z,24.1
2017-05-28T09:43:25.175Z,24.6
2017-05-28T09:53:40.460Z,22.8
2017-05-28T10:03:55.459Z,22.1
2017-05-28T10:14:11.296Z,23.1
2017-05-28T10:24:25.458Z,22.7
2017-05-28T10:34:40.109Z,24.4
2017-05-28T10:44:55.198Z,23.3
2017-05-28T10:55:09.846Z,23.4
2017-05-28T11:05:25.040Z,23.7
2017-05-28T11:15:40.534Z,23.6
2017-05-28T11:25:56.360Z,25.9
2017-05-28T11:36:11.159Z,25.8
2017-05-28T11:46:25.632Z,25.3
2017-05-28T11:56:41.174Z,27.6
2017-05-28T12:06:55.184Z,26.8
2017-05-28T12:17:09.761Z,26.7
2017-05-28T12:27:24.402Z,24.8
2017-05-28T12:37:39.377Z,24.9
2017-05-28T12:47:54.415Z,25.7
2017-05-28T12:58:10.241Z,25.2
2017-05-28T13:08:25.075Z,25.9
2017-05-28T13:18:39.238Z,26.1
2017-05-28T13:28:53.330Z,26.7
2017-05-28T13:39:08.823Z,28.1
2017-05-28T13:49:24.370Z,28.2
2017-05-28T13:59:39.231Z,27.6
2017-05-28T14:09:53.396Z,27.4
2017-05-28T14:20:08.345Z,27.9
2017-05-28T14:30:22.722Z,27.3
2017-05-28T14:40:37.532Z,27.8
2017-05-28T14:50:51.821Z,28.8
2017-05-28T15:01:06.300Z,28.1
2017-05-28T15:11:20.297Z,27.7
2017-05-28T15:21:34.353Z,28.5
2017-05-28T15:31:50.122Z,27.6
2017-05-28T15:42:04.569Z,27.6
2017-05-28T15:52:19.033Z,27.6
2017-05-28T16:02:34.887Z,27.2
2017-05-28T16:12:49.155Z,27.7
2017-05-28T16:23:03.984Z,28.7
2017-05-28T16:33:18.029Z,28.4
2017-05-28T16:43:33.381Z,28.8
2017-05-28T16:53:48.339Z,28.7
2017-05-28T17:04:03.772Z,28.8
2017-05-28T17:14:17.946Z,27.6
2017-05-28T17:24:32.276Z,27.5
2017-05-28T17:34:47.317Z,25.9
2017-05-28T17:45:02.244Z,25.8
2017-05-28T17:55:16.328Z,26.3
2017-05-28T18:05:32.053Z,25.7
2017-05-28T18:15:47.540Z,25.1
2017-05-28T18:26:01.650Z,24.8
2017-05-28T18:36:16.596Z,24.6
2017-05-28T18:46:31.285Z,24.7
2017-05-28T18:56:45.344Z,24.7
2017-05-28T19:06:59.706Z,24.6
2017-05-28T19:17:14.557Z,23.9
2017-05-28T19:27:30.316Z,23.3
2017-05-28T19:37:44.944Z,22.8
2017-05-28T19:47:59.598Z,22.3
2017-05-28T19:58:13.442Z,22.3
2017-05-28T20:08:27.698Z,21.8
2017-05-28T20:18:42.298Z,21.5
2017-05-28T20:28:57.611Z,21.3
2017-05-28T20:39:11.615Z,21
2017-05-28T20:49:27.193Z,21
2017-05-28T20:59:41.577Z,20.6
2017-05-28T21:09:55.437Z,20
2017-05-28T21:20:11.112Z,20
2017-05-28T21:30:24.929Z,20.3
2017-05-28T21:40:39.143Z,20.2
2017-05-28T21:50:53.215Z,19.5
2017-05-28T22:01:08.894Z,19
2017-05-28T22:11:23.351Z,19.2
2017-05-28T22:21:37.166Z,19.4
2017-05-28T22:31:51.263Z,19.4
2017-05-28T22:42:06.251Z,19.8
2017-05-28T22:52:21.327Z,19.4
2017-05-28T23:02:36.931Z,19.4
2017-05-28T23:12:52.296Z,19.4
2017-05-28T23:23:06.206Z,19.5
2017-05-28T23:33:21.019Z,19.5
2017-05-28T23:43:34.970Z,19.6
2017-05-28T23:53:49.042Z,18.9
